sensor_id;sensor_type;location;lat;lon;timestamp;pressure;altitude;pressure_sealevel;temperature;humidity
20955;BME280;10636;19.390;-99.256;2023-02-08T00:01:23;77621.56;;;24.27;19.73
20955;BME280;10636;19.390;-99.256;2023-02-08T00:03:52;77620.88;;;24.27;19.77
20955;BME280;10636;19.390;-99.256;2023-02-08T00:06:21;77619.56;;;24.28;19.93
20955;BME280;10636;19.390;-99.256;2023-02-08T00:08:49;77625.63;;;24.29;19.69
20955;BME280;10636;19.390;-99.256;2023-02-08T00:11:18;77625.63;;;24.29;20.13
20955;BME280;10636;19.390;-99.256;2023-02-08T00:13:48;77628.91;;;24.27;20.07
20955;BME280;10636;19.390;-99.256;2023-02-08T00:16:17;77627.53;;;24.26;20.20
20955;BME280;10636;19.390;-99.256;2023-02-08T00:18:46;77631.50;;;24.25;20.09
20955;BME280;10636;19.390;-99.256;2023-02-08T00:21:15;77627.53;;;24.26;20.53
20955;BME280;10636;19.390;-99.256;2023-02-08T00:23:44;77638.88;;;24.24;20.38
20955;BME280;10636;19.390;-99.256;2023-02-08T00:26:13;77630.81;;;24.24;20.08
20955;BME280;10636;19.390;-99.256;2023-02-08T00:28:42;77634.81;;;24.23;20.58
20955;BME280;10636;19.390;-99.256;2023-02-08T00:31:13;77636.06;;;24.20;20.23
20955;BME280;10636;19.390;-99.256;2023-02-08T00:33:41;77638.66;;;24.18;20.26
20955;BME280;10636;19.390;-99.256;2023-02-08T00:36:10;77641.34;;;24.18;20.72
20955;BME280;10636;19.390;-99.256;2023-02-08T00:38:39;77649.38;;;24.18;20.26
20955;BME280;10636;19.390;-99.256;2023-02-08T00:41:08;77646.63;;;24.16;20.51
20955;BME280;10636;19.390;-99.256;2023-02-08T00:43:36;77655.97;;;24.15;20.90
20955;BME280;10636;19.390;-99.256;2023-02-08T00:46:05;77656.56;;;24.14;20.66
20955;BME280;10636;19.390;-99.256;2023-02-08T00:48:36;77662.63;;;24.14;20.43
20955;BME280;10636;19.390;-99.256;2023-02-08T00:51:06;77663.88;;;24.11;20.50
20955;BME280;10636;19.390;-99.256;2023-02-08T00:53:36;77669.28;;;24.13;21.02
20955;BME280;10636;19.390;-99.256;2023-02-08T00:56:05;77665.25;;;24.12;21.42
20955;BME280;10636;19.390;-99.256;2023-02-08T00:58:34;77670.53;;;24.10;20.85
20955;BME280;10636;19.390;-99.256;2023-02-08T01:01:03;77675.13;;;24.08;21.02
20955;BME280;10636;19.390;-99.256;2023-02-08T01:03:33;77679.78;;;24.07;21.02
20955;BME280;10636;19.390;-99.256;2023-02-08T01:06:05;77674.38;;;24.05;21.26
20955;BME280;10636;19.390;-99.256;2023-02-08T01:08:33;77683.00;;;24.04;21.15
20955;BME280;10636;19.390;-99.256;2023-02-08T01:11:04;77683.63;;;24.02;21.38
20955;BME280;10636;19.390;-99.256;2023-02-08T01:13:35;77691.59;;;24.00;22.10
20955;BME280;10636;19.390;-99.256;2023-02-08T01:16:09;77699.69;;;24.02;22.31
20955;BME280;10636;19.390;-99.256;2023-02-08T01:18:38;77698.31;;;24.01;22.32
20955;BME280;10636;19.390;-99.256;2023-02-08T01:21:12;77704.31;;;23.99;21.96
20955;BME280;10636;19.390;-99.256;2023-02-08T01:23:44;77703.59;;;23.99;21.90
20955;BME280;10636;19.390;-99.256;2023-02-08T01:26:14;77704.16;;;23.95;22.25
20955;BME280;10636;19.390;-99.256;2023-02-08T01:28:43;77710.19;;;23.96;22.24
20955;BME280;10636;19.390;-99.256;2023-02-08T01:31:14;77713.56;;;23.96;22.15
20955;BME280;10636;19.390;-99.256;2023-02-08T01:33:45;77711.50;;;23.95;22.82
20955;BME280;10636;19.390;-99.256;2023-02-08T01:36:16;77715.50;;;23.94;22.45
20955;BME280;10636;19.390;-99.256;2023-02-08T01:38:45;77713.50;;;23.94;22.11
20955;BME280;10636;19.390;-99.256;2023-02-08T01:41:16;77718.16;;;23.94;22.91
20955;BME280;10636;19.390;-99.256;2023-02-08T01:44:04;77719.53;;;23.95;22.62
20955;BME280;10636;19.390;-99.256;2023-02-08T01:46:33;77725.59;;;23.95;22.94
20955;BME280;10636;19.390;-99.256;2023-02-08T01:49:05;77736.97;;;23.96;23.22
20955;BME280;10636;19.390;-99.256;2023-02-08T01:51:39;77730.31;;;23.97;23.57
20955;BME280;10636;19.390;-99.256;2023-02-08T01:54:10;77747.00;;;23.95;23.72
20955;BME280;10636;19.390;-99.256;2023-02-08T01:56:42;77742.41;;;23.98;23.42
20955;BME280;10636;19.390;-99.256;2023-02-08T01:59:16;77761.09;;;23.96;23.60
20955;BME280;10636;19.390;-99.256;2023-02-08T02:01:46;77765.81;;;23.97;24.01
20955;BME280;10636;19.390;-99.256;2023-02-08T02:04:16;77764.44;;;23.96;24.00
20955;BME280;10636;19.390;-99.256;2023-02-08T02:06:49;77763.75;;;23.96;24.02
20955;BME280;10636;19.390;-99.256;2023-02-08T02:09:24;77759.78;;;23.97;24.06
20955;BME280;10636;19.390;-99.256;2023-02-08T02:11:54;77759.78;;;23.97;24.52
20955;BME280;10636;19.390;-99.256;2023-02-08T02:14:23;77759.16;;;23.98;24.17
20955;BME280;10636;19.390;-99.256;2023-02-08T02:16:52;77762.47;;;23.97;24.11
20955;BME280;10636;19.390;-99.256;2023-02-08T02:19:26;77763.16;;;23.97;24.78
20955;BME280;10636;19.390;-99.256;2023-02-08T02:22:10;77770.50;;;23.97;24.29
20955;BME280;10636;19.390;-99.256;2023-02-08T02:28:08;77779.78;;;23.94;25.74
20955;BME280;10636;19.390;-99.256;2023-02-08T02:31:07;77785.72;;;23.92;25.59
20955;BME280;10636;19.390;-99.256;2023-02-08T02:33:52;77782.44;;;23.94;25.55
20955;BME280;10636;19.390;-99.256;2023-02-08T02:36:34;77788.50;;;23.94;26.19
20955;BME280;10636;19.390;-99.256;2023-02-08T02:39:14;77798.53;;;23.94;26.27
20955;BME280;10636;19.390;-99.256;2023-02-08T02:41:53;77814.44;;;23.90;26.31
20955;BME280;10636;19.390;-99.256;2023-02-08T02:44:49;77805.63;;;23.87;26.55
20955;BME280;10636;19.390;-99.256;2023-02-08T02:47:25;77808.91;;;23.86;26.64
20955;BME280;10636;19.390;-99.256;2023-02-08T02:50:01;77815.72;;;23.89;26.58
20955;BME280;10636;19.390;-99.256;2023-02-08T02:52:38;77819.69;;;23.88;26.65
20955;BME280;10636;19.390;-99.256;2023-02-08T02:55:12;77814.34;;;23.88;27.04
20955;BME280;10636;19.390;-99.256;2023-02-08T02:57:44;77819.69;;;23.88;26.62
20955;BME280;10636;19.390;-99.256;2023-02-08T03:00:20;77830.41;;;23.88;27.19
20955;BME280;10636;19.390;-99.256;2023-02-08T03:02:49;77827.72;;;23.88;27.18
20955;BME280;10636;19.390;-99.256;2023-02-08T03:05:20;77838.44;;;23.88;27.41
20955;BME280;10636;19.390;-99.256;2023-02-08T03:08:01;77828.78;;;23.81;27.00
20955;BME280;10636;19.390;-99.256;2023-02-08T03:13:46;77839.69;;;23.85;27.54
20955;BME280;10636;19.390;-99.256;2023-02-08T03:16:25;77841.03;;;23.86;26.60
20955;BME280;10636;19.390;-99.256;2023-02-08T03:19:06;77835.00;;;23.85;26.75
20955;BME280;10636;19.390;-99.256;2023-02-08T03:21:45;77847.09;;;23.86;27.45
20955;BME280;10636;19.390;-99.256;2023-02-08T03:24:23;77846.41;;;23.86;27.31
20955;BME280;10636;19.390;-99.256;2023-02-08T03:26:57;77849.00;;;23.84;26.80
20955;BME280;10636;19.390;-99.256;2023-02-08T03:29:38;77847.63;;;23.83;27.36
20955;BME280;10636;19.390;-99.256;2023-02-08T03:32:10;77842.25;;;23.83;27.33
20955;BME280;10636;19.390;-99.256;2023-02-08T03:34:46;77852.28;;;23.82;27.80
20955;BME280;10636;19.390;-99.256;2023-02-08T03:37:20;77857.63;;;23.82;28.16
20955;BME280;10636;19.390;-99.256;2023-02-08T03:39:53;77862.31;;;23.82;28.04
20955;BME280;10636;19.390;-99.256;2023-02-08T03:42:27;77856.94;;;23.82;27.44
20955;BME280;10636;19.390;-99.256;2023-02-08T03:45:00;77850.22;;;23.81;27.74
20955;BME280;10636;19.390;-99.256;2023-02-08T03:47:33;77855.56;;;23.81;27.65
20955;BME280;10636;19.390;-99.256;2023-02-08T03:50:08;77855.41;;;23.77;27.87
20955;BME280;10636;19.390;-99.256;2023-02-08T03:52:40;77867.59;;;23.80;28.02
20955;BME280;10636;19.390;-99.256;2023-02-08T03:55:13;77864.06;;;23.75;27.96
20955;BME280;10636;19.390;-99.256;2023-02-08T03:57:48;77868.91;;;23.79;28.18
20955;BME280;10636;19.390;-99.256;2023-02-08T04:00:18;77870.28;;;23.80;28.10
20955;BME280;10636;19.390;-99.256;2023-02-08T04:02:52;77876.31;;;23.80;28.24
20955;BME280;10636;19.390;-99.256;2023-02-08T04:05:23;77878.31;;;23.80;27.81
20955;BME280;10636;19.390;-99.256;2023-02-08T04:07:53;77879.00;;;23.80;27.49
20955;BME280;10636;19.390;-99.256;2023-02-08T04:10:22;77878.94;;;23.78;27.73
20955;BME280;10636;19.390;-99.256;2023-02-08T04:12:51;77868.81;;;23.77;28.01
20955;BME280;10636;19.390;-99.256;2023-02-08T04:15:19;77870.38;;;23.99;27.12
20955;BME280;10636;19.390;-99.256;2023-02-08T04:17:48;77880.44;;;23.83;27.64
20955;BME280;10636;19.390;-99.256;2023-02-08T04:20:17;77887.66;;;23.79;27.66
20955;BME280;10636;19.390;-99.256;2023-02-08T04:22:46;77857.34;;;23.58;28.04
20955;BME280;10636;19.390;-99.256;2023-02-08T04:25:16;77887.53;;;23.77;28.09
20955;BME280;10636;19.390;-99.256;2023-02-08T04:27:45;77894.22;;;23.76;28.43
20955;BME280;10636;19.390;-99.256;2023-02-08T04:30:13;77890.16;;;23.74;28.59
20955;BME280;10636;19.390;-99.256;2023-02-08T04:32:42;77894.13;;;23.73;27.65
20955;BME280;10636;19.390;-99.256;2023-02-08T04:35:11;77899.50;;;23.73;27.92
20955;BME280;10636;19.390;-99.256;2023-02-08T04:37:39;77897.94;;;23.68;28.52
20955;BME280;10636;19.390;-99.256;2023-02-08T04:40:09;77904.06;;;23.71;28.06
20955;BME280;10636;19.390;-99.256;2023-02-08T04:42:39;77904.75;;;23.71;28.23
20955;BME280;10636;19.390;-99.256;2023-02-08T04:45:09;77905.38;;;23.70;27.79
20955;BME280;10636;19.390;-99.256;2023-02-08T04:47:37;77904.69;;;23.69;27.92
20955;BME280;10636;19.390;-99.256;2023-02-08T04:50:06;77904.69;;;23.69;27.99
20955;BME280;10636;19.390;-99.256;2023-02-08T04:52:35;77901.31;;;23.69;28.04
20955;BME280;10636;19.390;-99.256;2023-02-08T04:55:04;77902.63;;;23.68;28.60
20955;BME280;10636;19.390;-99.256;2023-02-08T04:57:32;77912.59;;;23.67;28.72
20955;BME280;10636;19.390;-99.256;2023-02-08T05:00:06;77912.59;;;23.67;28.10
20955;BME280;10636;19.390;-99.256;2023-02-08T05:02:35;77911.22;;;23.66;27.90
20955;BME280;10636;19.390;-99.256;2023-02-08T05:05:04;77905.88;;;23.66;27.95
20955;BME280;10636;19.390;-99.256;2023-02-08T05:07:32;77897.78;;;23.64;28.29
20955;BME280;10636;19.390;-99.256;2023-02-08T05:10:01;77901.91;;;23.67;28.74
20955;BME280;10636;19.390;-99.256;2023-02-08T05:12:30;77907.78;;;23.64;28.05
20955;BME280;10636;19.390;-99.256;2023-02-08T05:14:58;77908.47;;;23.64;28.61
20955;BME280;10636;19.390;-99.256;2023-02-08T05:17:28;77906.41;;;23.63;28.46
20955;BME280;10636;19.390;-99.256;2023-02-08T05:19:57;77907.09;;;23.63;28.12
20955;BME280;10636;19.390;-99.256;2023-02-08T05:22:26;77904.44;;;23.63;28.19
20955;BME280;10636;19.390;-99.256;2023-02-08T05:24:54;77904.44;;;23.63;28.38
20955;BME280;10636;19.390;-99.256;2023-02-08T05:27:23;77906.41;;;23.63;28.20
20955;BME280;10636;19.390;-99.256;2023-02-08T05:29:51;77907.09;;;23.63;28.43
20955;BME280;10636;19.390;-99.256;2023-02-08T05:32:20;77898.94;;;23.61;28.82
20955;BME280;10636;19.390;-99.256;2023-02-08T05:34:50;77902.94;;;23.60;28.66
20955;BME280;10636;19.390;-99.256;2023-02-08T05:37:19;77901.63;;;23.61;28.86
20955;BME280;10636;19.390;-99.256;2023-02-08T05:39:47;77897.56;;;23.60;28.15
20955;BME280;10636;19.390;-99.256;2023-02-08T05:42:16;77900.94;;;23.61;28.88
20955;BME280;10636;19.390;-99.256;2023-02-08T05:44:44;77898.88;;;23.59;28.14
20955;BME280;10636;19.390;-99.256;2023-02-08T05:47:13;77901.56;;;23.59;28.57
20955;BME280;10636;19.390;-99.256;2023-02-08T05:49:41;77906.91;;;23.59;29.27
20955;BME280;10636;19.390;-99.256;2023-02-08T05:52:12;77896.81;;;23.58;29.27
20955;BME280;10636;19.390;-99.256;2023-02-08T05:54:40;77892.06;;;23.56;28.61
20955;BME280;10636;19.390;-99.256;2023-02-08T05:57:09;77894.66;;;23.54;29.01
20955;BME280;10636;19.390;-99.256;2023-02-08T05:59:37;77902.06;;;23.56;29.12
20955;BME280;10636;19.390;-99.256;2023-02-08T06:02:06;77898.72;;;23.55;28.85
20955;BME280;10636;19.390;-99.256;2023-02-08T06:04:34;77900.63;;;23.53;28.50
20955;BME280;10636;19.390;-99.256;2023-02-08T06:07:03;77895.97;;;23.53;28.59
20955;BME280;10636;19.390;-99.256;2023-02-08T06:09:33;77894.59;;;23.52;28.80
20955;BME280;10636;19.390;-99.256;2023-02-08T06:12:02;77894.59;;;23.52;28.49
20955;BME280;10636;19.390;-99.256;2023-02-08T06:14:30;77890.50;;;23.51;29.16
20955;BME280;10636;19.390;-99.256;2023-02-08T06:16:59;77882.41;;;23.49;28.63
20955;BME280;10636;19.390;-99.256;2023-02-08T06:19:27;77885.00;;;23.47;28.62
20955;BME280;10636;19.390;-99.256;2023-02-08T06:21:56;77885.00;;;23.47;28.66
20955;BME280;10636;19.390;-99.256;2023-02-08T06:24:25;77879.66;;;23.47;28.69
20955;BME280;10636;19.390;-99.256;2023-02-08T06:26:56;77868.84;;;23.45;28.82
20955;BME280;10636;19.390;-99.256;2023-02-08T06:29:24;77862.81;;;23.44;28.56
20955;BME280;10636;19.390;-99.256;2023-02-08T06:31:53;77869.47;;;23.43;29.22
20955;BME280;10636;19.390;-99.256;2023-02-08T06:34:21;77864.81;;;23.44;29.40
20955;BME280;10636;19.390;-99.256;2023-02-08T06:36:50;77862.06;;;23.42;28.79
20955;BME280;10636;19.390;-99.256;2023-02-08T06:39:19;77854.59;;;23.40;28.78
20955;BME280;10636;19.390;-99.256;2023-02-08T06:41:47;77871.34;;;23.41;29.30
20955;BME280;10636;19.390;-99.256;2023-02-08T06:44:18;77865.94;;;23.39;28.59
20955;BME280;10636;19.390;-99.256;2023-02-08T06:46:46;77861.19;;;23.37;29.44
20955;BME280;10636;19.390;-99.256;2023-02-08T06:49:15;77860.41;;;23.35;28.73
20955;BME280;10636;19.390;-99.256;2023-02-08T06:51:43;77855.66;;;23.33;28.85
20955;BME280;10636;19.390;-99.256;2023-02-08T06:54:12;77864.31;;;23.32;29.37
20955;BME280;10636;19.390;-99.256;2023-02-08T06:56:41;77863.69;;;23.33;29.20
20955;BME280;10636;19.390;-99.256;2023-02-08T06:59:10;77855.31;;;23.25;28.64
20955;BME280;10636;19.390;-99.256;2023-02-08T07:01:40;77857.59;;;23.31;29.36
20955;BME280;10636;19.390;-99.256;2023-02-08T07:04:09;77861.53;;;23.30;28.72
20955;BME280;10636;19.390;-99.256;2023-02-08T07:06:37;77860.16;;;23.29;29.43
20955;BME280;10636;19.390;-99.256;2023-02-08T07:09:06;77865.44;;;23.27;29.11
20955;BME280;10636;19.390;-99.256;2023-02-08T07:11:34;77867.44;;;23.26;28.92
20955;BME280;10636;19.390;-99.256;2023-02-08T07:14:03;77861.28;;;23.23;29.59
20955;BME280;10636;19.390;-99.256;2023-02-08T07:16:32;77862.59;;;23.22;28.84
20955;BME280;10636;19.390;-99.256;2023-02-08T07:19:02;77871.91;;;23.21;28.95
20955;BME280;10636;19.390;-99.256;2023-02-08T07:21:30;77865.19;;;23.20;29.12
20955;BME280;10636;19.390;-99.256;2023-02-08T07:23:59;77861.72;;;23.18;28.83
20955;BME280;10636;19.390;-99.256;2023-02-08T07:26:28;77861.03;;;23.17;29.67
20955;BME280;10636;19.390;-99.256;2023-02-08T07:28:57;77850.34;;;23.17;29.19
20955;BME280;10636;19.390;-99.256;2023-02-08T07:31:26;77852.94;;;23.15;29.54
20955;BME280;10636;19.390;-99.256;2023-02-08T07:33:54;77844.63;;;23.09;29.13
20955;BME280;10636;19.390;-99.256;2023-02-08T07:36:24;77851.53;;;23.14;28.91
20955;BME280;10636;19.390;-99.256;2023-02-08T07:38:53;77849.47;;;23.13;29.25
20955;BME280;10636;19.390;-99.256;2023-02-08T07:41:21;77848.78;;;23.12;29.16
20955;BME280;10636;19.390;-99.256;2023-02-08T07:43:50;77851.47;;;23.12;29.54
20955;BME280;10636;19.390;-99.256;2023-02-08T07:46:20;77848.78;;;23.12;29.13
20955;BME280;10636;19.390;-99.256;2023-02-08T07:48:48;77848.03;;;23.10;29.64
20955;BME280;10636;19.390;-99.256;2023-02-08T07:51:18;77835.94;;;23.09;29.44
20955;BME280;10636;19.390;-99.256;2023-02-08T07:53:49;77843.25;;;23.08;29.22
20955;BME280;10636;19.390;-99.256;2023-02-08T07:56:17;77839.22;;;23.07;29.65
20955;BME280;10636;19.390;-99.256;2023-02-08T07:58:46;77835.16;;;23.06;29.59
20955;BME280;10636;19.390;-99.256;2023-02-08T08:01:14;77832.50;;;23.06;28.72
20955;BME280;10636;19.390;-99.256;2023-02-08T08:03:43;77828.44;;;23.05;29.09
20955;BME280;10636;19.390;-99.256;2023-02-08T08:06:12;77823.69;;;23.04;29.00
20955;BME280;10636;19.390;-99.256;2023-02-08T08:08:40;77825.53;;;22.99;29.39
20955;BME280;10636;19.390;-99.256;2023-02-08T08:11:15;77828.28;;;23.01;29.24
20955;BME280;10636;19.390;-99.256;2023-02-08T08:13:44;77824.81;;;22.99;28.78
20955;BME280;10636;19.390;-99.256;2023-02-08T08:16:12;77829.47;;;22.98;29.42
20955;BME280;10636;19.390;-99.256;2023-02-08T08:18:41;77836.22;;;22.99;29.40
20955;BME280;10636;19.390;-99.256;2023-02-08T08:21:10;77828.09;;;22.97;28.94
20955;BME280;10636;19.390;-99.256;2023-02-08T08:23:38;77825.25;;;22.93;29.19
20955;BME280;10636;19.390;-99.256;2023-02-08T08:26:09;77821.38;;;22.96;29.55
20955;BME280;10636;19.390;-99.256;2023-02-08T08:28:41;77828.03;;;22.95;29.47
20955;BME280;10636;19.390;-99.256;2023-02-08T08:31:13;77831.38;;;22.95;28.93
20955;BME280;10636;19.390;-99.256;2023-02-08T08:33:42;77828.59;;;22.93;29.78
20955;BME280;10636;19.390;-99.256;2023-02-08T08:36:11;77826.53;;;22.92;29.48
20955;BME280;10636;19.390;-99.256;2023-02-08T08:38:40;77826.53;;;22.92;29.77
20955;BME280;10636;19.390;-99.256;2023-02-08T08:41:09;77823.88;;;22.92;29.41
20955;BME280;10636;19.390;-99.256;2023-02-08T08:43:41;77821.19;;;22.92;29.84
20955;BME280;10636;19.390;-99.256;2023-02-08T08:46:10;77821.13;;;22.90;29.50
20955;BME280;10636;19.390;-99.256;2023-02-08T08:48:40;77818.44;;;22.90;29.30
20955;BME280;10636;19.390;-99.256;2023-02-08T08:51:09;77817.06;;;22.89;29.87
20955;BME280;10636;19.390;-99.256;2023-02-08T08:53:37;77821.03;;;22.88;29.11
20955;BME280;10636;19.390;-99.256;2023-02-08T08:56:06;77815.66;;;22.88;29.14
20955;BME280;10636;19.390;-99.256;2023-02-08T08:58:35;77823.59;;;22.86;29.25
20955;BME280;10636;19.390;-99.256;2023-02-08T09:01:05;77805.81;;;22.77;29.05
20955;BME280;10636;19.390;-99.256;2023-02-08T09:03:34;77812.91;;;22.86;29.93
20955;BME280;10636;19.390;-99.256;2023-02-08T09:06:02;77820.16;;;22.83;29.36
20955;BME280;10636;19.390;-99.256;2023-02-08T09:08:31;77818.06;;;22.82;29.89
20955;BME280;10636;19.390;-99.256;2023-02-08T09:11:04;77819.44;;;22.83;30.04
20955;BME280;10636;19.390;-99.256;2023-02-08T09:13:34;77814.03;;;22.81;29.26
20955;BME280;10636;19.390;-99.256;2023-02-08T09:16:09;77818.69;;;22.80;29.34
20955;BME280;10636;19.390;-99.256;2023-02-08T09:18:38;77812.66;;;22.80;29.05
20955;BME280;10636;19.390;-99.256;2023-02-08T09:21:08;77807.31;;;22.80;29.51
20955;BME280;10636;19.390;-99.256;2023-02-08T09:23:37;77808.59;;;22.79;29.55
20955;BME280;10636;19.390;-99.256;2023-02-08T09:26:07;77813.94;;;22.79;29.28
20955;BME280;10636;19.390;-99.256;2023-02-08T09:28:37;77806.50;;;22.77;29.77
20955;BME280;10636;19.390;-99.256;2023-02-08T09:31:11;77799.09;;;22.76;29.96
20955;BME280;10636;19.390;-99.256;2023-02-08T09:33:40;77804.44;;;22.76;29.96
20955;BME280;10636;19.390;-99.256;2023-02-08T09:36:09;77807.06;;;22.74;29.42
20955;BME280;10636;19.390;-99.256;2023-02-08T09:38:38;77805.66;;;22.73;29.88
20955;BME280;10636;19.390;-99.256;2023-02-08T09:41:29;77808.25;;;22.70;29.49
20955;BME280;10636;19.390;-99.256;2023-02-08T09:44:12;77805.56;;;22.70;29.36
20955;BME280;10636;19.390;-99.256;2023-02-08T09:46:49;77806.88;;;22.69;29.32
20955;BME280;10636;19.390;-99.256;2023-02-08T09:49:23;77804.19;;;22.69;29.95
20955;BME280;10636;19.390;-99.256;2023-02-08T09:51:56;77801.47;;;22.67;29.27
20955;BME280;10636;19.390;-99.256;2023-02-08T09:54:29;77778.00;;;22.50;29.48
20955;BME280;10636;19.390;-99.256;2023-02-08T09:57:01;77802.03;;;22.66;29.69
20955;BME280;10636;19.390;-99.256;2023-02-08T09:59:33;77799.97;;;22.64;29.98
20955;BME280;10636;19.390;-99.256;2023-02-08T10:02:24;77802.66;;;22.64;29.42
20955;BME280;10636;19.390;-99.256;2023-02-08T10:04:59;77799.97;;;22.64;30.12
20955;BME280;10636;19.390;-99.256;2023-02-08T10:07:30;77801.78;;;22.60;29.78
20955;BME280;10636;19.390;-99.256;2023-02-08T10:10:01;77805.84;;;22.61;30.18
20955;BME280;10636;19.390;-99.256;2023-02-08T10:12:37;77804.47;;;22.60;29.92
20955;BME280;10636;19.390;-99.256;2023-02-08T10:15:22;77789.97;;;22.49;29.60
20955;BME280;10636;19.390;-99.256;2023-02-08T10:18:11;77794.28;;;22.56;30.02
20955;BME280;10636;19.390;-99.256;2023-02-08T10:20:56;77794.13;;;22.52;29.64
20955;BME280;10636;19.390;-99.256;2023-02-08T10:23:38;77792.91;;;22.55;30.12
20955;BME280;10636;19.390;-99.256;2023-02-08T10:26:19;77798.94;;;22.56;29.54
20955;BME280;10636;19.390;-99.256;2023-02-08T10:29:15;77796.88;;;22.54;29.95
20955;BME280;10636;19.390;-99.256;2023-02-08T10:32:01;77808.88;;;22.53;30.09
20955;BME280;10636;19.390;-99.256;2023-02-08T10:34:43;77795.41;;;22.51;29.62
20955;BME280;10636;19.390;-99.256;2023-02-08T10:37:15;77792.03;;;22.51;29.32
20955;BME280;10636;19.390;-99.256;2023-02-08T10:39:45;77796.69;;;22.50;30.10
20955;BME280;10636;19.390;-99.256;2023-02-08T10:42:15;77798.00;;;22.49;30.13
20955;BME280;10636;19.390;-99.256;2023-02-08T10:44:55;77798.00;;;22.49;29.87
20955;BME280;10636;19.390;-99.256;2023-02-08T10:47:37;77797.91;;;22.47;29.74
20955;BME280;10636;19.390;-99.256;2023-02-08T10:50:14;77805.31;;;22.49;29.63
20955;BME280;10636;19.390;-99.256;2023-02-08T10:52:47;77794.63;;;22.49;29.88
20955;BME280;10636;19.390;-99.256;2023-02-08T10:55:19;77791.72;;;22.42;29.80
20955;BME280;10636;19.390;-99.256;2023-02-08T10:57:49;77797.91;;;22.47;29.70
20955;BME280;10636;19.390;-99.256;2023-02-08T11:00:21;77797.22;;;22.47;29.91
20955;BME280;10636;19.390;-99.256;2023-02-08T11:02:52;77796.53;;;22.46;30.12
20955;BME280;10636;19.390;-99.256;2023-02-08T11:05:34;77807.13;;;22.44;29.45
20955;BME280;10636;19.390;-99.256;2023-02-08T11:08:08;77801.78;;;22.44;29.27
20955;BME280;10636;19.390;-99.256;2023-02-08T11:10:38;77792.41;;;22.43;29.61
20955;BME280;10636;19.390;-99.256;2023-02-08T11:13:16;77801.72;;;22.42;29.38
20955;BME280;10636;19.390;-99.256;2023-02-08T11:15:46;77802.41;;;22.42;29.35
20955;BME280;10636;19.390;-99.256;2023-02-08T11:18:20;77796.00;;;22.34;29.40
20955;BME280;10636;19.390;-99.256;2023-02-08T11:20:52;77819.53;;;22.37;29.74
20955;BME280;10636;19.390;-99.256;2023-02-08T11:23:24;77816.88;;;22.37;30.41
20955;BME280;10636;19.390;-99.256;2023-02-08T11:25:54;77807.81;;;22.29;30.19
20955;BME280;10636;19.390;-99.256;2023-02-08T11:28:41;77822.72;;;22.34;29.57
20955;BME280;10636;19.390;-99.256;2023-02-08T11:31:17;77823.34;;;22.32;30.27
20955;BME280;10636;19.390;-99.256;2023-02-08T11:33:59;77832.03;;;22.33;29.55
20955;BME280;10636;19.390;-99.256;2023-02-08T11:36:30;77830.75;;;22.34;30.37
20955;BME280;10636;19.390;-99.256;2023-02-08T11:39:01;77833.50;;;22.36;29.59
20955;BME280;10636;19.390;-99.256;2023-02-08T11:41:30;77838.75;;;22.34;29.90
20955;BME280;10636;19.390;-99.256;2023-02-08T11:44:02;77836.00;;;22.32;29.75
20955;BME280;10636;19.390;-99.256;2023-02-08T11:46:33;77840.06;;;22.33;30.61
20955;BME280;10636;19.390;-99.256;2023-02-08T11:49:04;77839.97;;;22.31;30.19
20955;BME280;10636;19.390;-99.256;2023-02-08T11:51:37;77838.56;;;22.30;30.51
20955;BME280;10636;19.390;-99.256;2023-02-08T11:54:09;77837.19;;;22.29;30.68
20955;BME280;10636;19.390;-99.256;2023-02-08T11:57:02;77847.28;;;22.30;30.35
20955;BME280;10636;19.390;-99.256;2023-02-08T11:59:30;77838.41;;;22.26;30.35
20955;BME280;10636;19.390;-99.256;2023-02-08T12:02:21;77844.59;;;22.30;30.96
20955;BME280;10636;19.390;-99.256;2023-02-08T12:04:54;77852.03;;;22.32;30.94
20955;BME280;10636;19.390;-99.256;2023-02-08T12:07:31;77853.22;;;22.29;30.55
20955;BME280;10636;19.390;-99.256;2023-02-08T12:10:20;77857.13;;;22.26;30.96
20955;BME280;10636;19.390;-99.256;2023-02-08T12:13:05;77857.88;;;22.28;31.00
20955;BME280;10636;19.390;-99.256;2023-02-08T12:15:44;77865.22;;;22.28;30.90
20955;BME280;10636;19.390;-99.256;2023-02-08T12:18:27;77859.88;;;22.28;31.35
20955;BME280;10636;19.390;-99.256;2023-02-08T12:21:00;77852.78;;;22.18;30.88
20955;BME280;10636;19.390;-99.256;2023-02-08T12:23:46;77833.34;;;22.02;31.53
20955;BME280;10636;19.390;-99.256;2023-02-08T12:26:22;77864.34;;;22.23;30.55
20955;BME280;10636;19.390;-99.256;2023-02-08T12:29:10;77867.81;;;22.26;30.96
20955;BME280;10636;19.390;-99.256;2023-02-08T12:31:52;77849.53;;;22.06;30.75
20955;BME280;10636;19.390;-99.256;2023-02-08T12:34:34;77872.53;;;22.27;30.47
20955;BME280;10636;19.390;-99.256;2023-02-08T12:37:25;77868.91;;;22.21;31.53
20955;BME280;10636;19.390;-99.256;2023-02-08T12:40:25;77878.91;;;22.20;30.95
20955;BME280;10636;19.390;-99.256;2023-02-08T12:43:30;77875.25;;;22.13;30.74
20955;BME280;10636;19.390;-99.256;2023-02-08T12:46:28;77883.38;;;22.15;31.67
20955;BME280;10636;19.390;-99.256;2023-02-08T12:49:24;77887.31;;;22.14;31.74
20955;BME280;10636;19.390;-99.256;2023-02-08T12:52:04;77884.63;;;22.14;31.24
20955;BME280;10636;19.390;-99.256;2023-02-08T12:54:41;77883.94;;;22.14;31.50
20955;BME280;10636;19.390;-99.256;2023-02-08T12:57:16;77879.91;;;22.13;31.55
20955;BME280;10636;19.390;-99.256;2023-02-08T12:59:48;77896.44;;;22.09;30.83
20955;BME280;10636;19.390;-99.256;2023-02-08T13:02:21;77895.16;;;22.10;31.20
20955;BME280;10636;19.390;-99.256;2023-02-08T13:04:53;77903.19;;;22.10;30.93
20955;BME280;10636;19.390;-99.256;2023-02-08T13:07:28;77907.22;;;22.11;31.32
20955;BME280;10636;19.390;-99.256;2023-02-08T13:10:01;77911.06;;;22.08;31.13
20955;BME280;10636;19.390;-99.256;2023-02-08T13:12:34;77909.69;;;22.07;30.82
20955;BME280;10636;19.390;-99.256;2023-02-08T13:15:09;77912.94;;;22.06;31.12